createdAt,value
2022-09-20T00:01:07.763Z,-20241.69
2022-09-20T00:03:36.441Z,-20239.69
2022-09-20T00:06:05.165Z,-20240.00
2022-09-20T00:08:32.895Z,-20240.59
2022-09-20T00:11:02.603Z,-20240.16
2022-09-20T00:13:32.009Z,-20238.63
2022-09-20T00:16:00.695Z,-20238.31
2022-09-20T00:18:28.370Z,-20238.78
2022-09-20T00:20:55.961Z,-20238.31
2022-09-20T00:23:23.528Z,-20236.31
2022-09-20T00:25:58.837Z,-20236.94
2022-09-20T00:28:27.184Z,-20236.78
2022-09-20T00:30:57.245Z,-20234.94
2022-09-20T00:33:46.135Z,-20235.41
2022-09-20T00:36:13.186Z,-20233.41
2022-09-20T00:38:41.465Z,-20232.03
2022-09-20T00:41:09.818Z,-20231.56
2022-09-20T00:43:39.181Z,-20231.56
2022-09-20T00:46:21.274Z,-20230.97
2022-09-20T00:48:50.491Z,-20231.25
2022-09-20T00:51:26.443Z,-20231.25
2022-09-20T00:53:56.842Z,-20232.03
2022-09-20T00:56:29.617Z,-20231.25
2022-09-20T00:59:05.797Z,-20232.19
2022-09-20T01:01:35.254Z,-20233.25
2022-09-20T01:04:04.734Z,-20233.72
2022-09-20T01:06:33.935Z,-20235.56
2022-09-20T01:09:04.113Z,-20234.78
2022-09-20T01:11:32.611Z,-20236.16
2022-09-20T01:14:00.182Z,-20234.94
2022-09-20T01:16:28.473Z,-20233.41
2022-09-20T01:18:59.667Z,-20234.31
2022-09-20T01:21:29.046Z,-20234.31
2022-09-20T01:24:07.729Z,-20234.03
2022-09-20T01:26:51.929Z,-20231.88
2022-09-20T01:29:36.117Z,-20231.25
2022-09-20T01:32:09.303Z,-20228.22
2022-09-20T01:34:38.682Z,-20229.44
2022-09-20T01:37:15.423Z,-20229.13
2022-09-20T01:39:53.153Z,-20225.16
2022-09-20T01:42:26.886Z,-20226.06
2022-09-20T01:45:02.371Z,-20226.38
2022-09-20T01:47:36.690Z,-20225.91
2022-09-20T01:50:13.192Z,-20226.69
2022-09-20T01:53:18.585Z,-20228.50
2022-09-20T01:56:13.570Z,-20230.34
2022-09-20T01:59:24.574Z,-20228.50
2022-09-20T02:02:14.700Z,-20227.28
2022-09-20T02:05:11.645Z,-20226.69
2022-09-20T02:07:55.708Z,-20226.38
2022-09-20T02:10:39.216Z,-20223.00
2022-09-20T02:13:12.558Z,-20223.63
2022-09-20T02:16:11.806Z,-20222.53
2022-09-20T02:18:58.758Z,-20220.41
2022-09-20T02:21:35.142Z,-20221.16
2022-09-20T02:24:19.233Z,-20218.13
2022-09-20T02:26:57.569Z,-20215.81
2022-09-20T02:29:38.953Z,-20216.44
2022-09-20T02:32:24.805Z,-20216.56
2022-09-20T02:35:24.601Z,-20216.28
2022-09-20T02:38:01.081Z,-20217.19
2022-09-20T02:40:47.012Z,-20217.19
2022-09-20T02:43:24.406Z,-20218.13
2022-09-20T02:46:02.310Z,-20218.41
2022-09-20T02:48:39.996Z,-20218.41
2022-09-20T02:51:19.545Z,-20218.41
2022-09-20T02:53:56.730Z,-20219.78
2022-09-20T02:56:34.869Z,-20218.41
2022-09-20T02:59:10.413Z,-20215.97
2022-09-20T03:01:49.110Z,-20215.66
2022-09-20T03:04:33.990Z,-20215.34
2022-09-20T03:07:11.353Z,-20216.56
2022-09-20T03:09:46.312Z,-20215.34
2022-09-20T03:12:23.155Z,-20215.97
2022-09-20T03:15:00.749Z,-20215.66
2022-09-20T03:17:42.343Z,-20216.28
2022-09-20T03:20:21.682Z,-20215.97
2022-09-20T03:22:58.246Z,-20215.97
2022-09-20T03:25:37.709Z,-20216.72
2022-09-20T03:28:16.218Z,-20217.66
2022-09-20T03:30:56.982Z,-20217.19
2022-09-20T03:33:32.775Z,-20215.81
2022-09-20T03:36:12.409Z,-20214.91
2022-09-20T03:39:16.090Z,-20214.75
2022-09-20T03:42:12.933Z,-20213.66
2022-09-20T03:45:08.578Z,-20215.06
2022-09-20T03:47:55.822Z,-20213.22
2022-09-20T03:50:46.133Z,-20210.47
2022-09-20T03:53:42.218Z,-20209.22
2022-09-20T03:56:52.354Z,-20207.41
2022-09-20T03:59:37.210Z,-20206.78
2022-09-20T04:02:22.274Z,-20204.34
2022-09-20T04:04:55.673Z,-20204.03
2022-09-20T04:07:31.227Z,-20201.28
2022-09-20T04:10:21.473Z,-20199.91
2022-09-20T04:13:10.632Z,-20200.66
2022-09-20T04:15:47.173Z,-20197.59
2022-09-20T04:18:28.417Z,-20198.22
2022-09-20T04:21:00.525Z,-20196.97
2022-09-20T04:23:39.194Z,-20198.53
2022-09-20T04:26:07.960Z,-20197.91
2022-09-20T04:28:42.107Z,-20197.44
2022-09-20T04:31:25.524Z,-20197.44
2022-09-20T04:33:57.311Z,-20199.75
2022-09-20T04:36:37.515Z,-20201.28
2022-09-20T04:39:16.323Z,-20201.72
2022-09-20T04:42:24.149Z,-20199.91
2022-09-20T04:45:30.353Z,-20201.28
2022-09-20T04:48:33.501Z,-20202.03
2022-09-20T04:51:37.957Z,-20204.03
2022-09-20T04:54:39.473Z,-20206.78
2022-09-20T04:57:32.764Z,-20208.47
2022-09-20T05:00:06.929Z,-20207.56
2022-09-20T05:02:57.914Z,-20208.94
2022-09-20T05:05:41.475Z,-20208.94
2022-09-20T05:08:53.263Z,-20210.00
2022-09-20T05:11:47.118Z,-20211.69
2022-09-20T05:14:25.905Z,-20211.84
2022-09-20T05:17:14.717Z,-20212.00
2022-09-20T05:20:01.460Z,-20213.53
2022-09-20T05:22:59.760Z,-20214.59
2022-09-20T05:25:42.122Z,-20216.28
2022-09-20T05:28:19.974Z,-20216.44
2022-09-20T05:30:50.181Z,-20217.50
2022-09-20T05:33:23.769Z,-20216.28
2022-09-20T05:36:05.789Z,-20215.97
2022-09-20T05:38:47.204Z,-20215.34
2022-09-20T05:41:24.659Z,-20215.66
2022-09-20T05:43:59.597Z,-20217.81
2022-09-20T05:46:36.978Z,-20220.88
2022-09-20T05:49:16.890Z,-20222.69
2022-09-20T05:51:59.693Z,-20223.00
2022-09-20T05:54:44.758Z,-20225.75
2022-09-20T05:57:22.967Z,-20225.16
2022-09-20T06:00:02.651Z,-20227.00
2022-09-20T06:02:38.713Z,-20226.06
2022-09-20T06:05:15.230Z,-20225.44
2022-09-20T06:08:06.817Z,-20223.78
2022-09-20T06:10:48.189Z,-20225.16
2022-09-20T06:13:31.360Z,-20224.84
2022-09-20T06:16:02.057Z,-20226.84
2022-09-20T06:18:35.425Z,-20226.69
2022-09-20T06:21:16.585Z,-20227.00
2022-09-20T06:23:44.762Z,-20227.00
2022-09-20T06:26:18.768Z,-20227.00
2022-09-20T06:28:50.198Z,-20227.91
2022-09-20T06:31:18.282Z,-20228.81
2022-09-20T06:33:51.941Z,-20231.72
2022-09-20T06:36:53.477Z,-20230.50
2022-09-20T06:39:49.995Z,-20233.41
2022-09-20T06:42:19.587Z,-20235.84
2022-09-20T06:44:47.294Z,-20237.38
2022-09-20T06:47:15.734Z,-20240.16
2022-09-20T06:49:44.370Z,-20241.38
2022-09-20T06:52:15.371Z,-20243.34
2022-09-20T06:54:45.594Z,-20245.03
2022-09-20T06:57:16.338Z,-20247.19
2022-09-20T06:59:45.621Z,-20248.09
2022-09-20T07:02:13.279Z,-20249.78
2022-09-20T07:04:41.038Z,-20251.16
2022-09-20T07:07:10.071Z,-20251.63
2022-09-20T07:09:37.639Z,-20252.69
2022-09-20T07:12:06.246Z,-20254.97
2022-09-20T07:14:33.785Z,-20253.28
2022-09-20T07:17:06.530Z,-20254.81
2022-09-20T07:19:35.093Z,-20256.03
2022-09-20T07:22:02.633Z,-20258.19
2022-09-20T07:24:32.177Z,-20259.41
2022-09-20T07:27:02.840Z,-20264.31
2022-09-20T07:29:31.365Z,-20262.94
2022-09-20T07:31:59.025Z,-20262.78
2022-09-20T07:34:27.954Z,-20262.78
2022-09-20T07:36:57.198Z,-20268.59
2022-09-20T07:39:27.721Z,-20269.50
2022-09-20T07:41:55.498Z,-20275.63
2022-09-20T07:44:24.818Z,-20281.41
2022-09-20T07:46:53.069Z,-20292.88
2022-09-20T07:49:21.803Z,-20305.41
2022-09-20T07:51:52.028Z,-20314.56
2022-09-20T07:54:20.064Z,-20316.84
2022-09-20T07:56:48.228Z,-20321.44
2022-09-20T07:59:16.236Z,-20337.31
2022-09-20T08:01:44.106Z,-20345.25
2022-09-20T08:04:12.483Z,-20361.56
2022-09-20T08:06:41.582Z,-20367.06
2022-09-20T08:09:11.876Z,-20371.94
2022-09-20T08:11:40.877Z,-20367.53
2022-09-20T08:14:10.622Z,-20364.94
2022-09-20T08:16:40.493Z,-20366.31
2022-09-20T08:19:08.790Z,-20367.53
2022-09-20T08:21:39.678Z,-20364.63
2022-09-20T08:24:07.599Z,-20369.34
2022-09-20T08:26:37.048Z,-20376.66
2022-09-20T08:29:06.266Z,-20381.84
2022-09-20T08:31:37.163Z,-20382.16
2022-09-20T08:34:06.611Z,-20384.28
2022-09-20T08:36:37.210Z,-20388.72
2022-09-20T08:41:58.085Z,-20391.00
2022-09-20T08:44:29.561Z,-20398.91
2022-09-20T08:47:07.243Z,-20397.38
2022-09-20T08:49:35.166Z,-20393.72
2022-09-20T08:52:10.545Z,-20399.69
2022-09-20T08:54:38.318Z,-20406.84
2022-09-20T08:57:15.330Z,-20414.16
2022-09-20T08:59:43.310Z,-20414.75
2022-09-20T09:02:16.972Z,-20413.69
2022-09-20T09:04:45.627Z,-20416.59
2022-09-20T09:07:14.700Z,-20419.03
2022-09-20T09:09:44.673Z,-20416.44
2022-09-20T09:12:22.110Z,-20403.50
2022-09-20T09:14:54.715Z,-20401.06
2022-09-20T09:17:27.295Z,-20392.53
2022-09-20T09:19:56.879Z,-20395.88
2022-09-20T09:22:32.728Z,-20406.84
2022-09-20T09:25:25.533Z,-20413.38
2022-09-20T09:27:56.985Z,-20410.03
2022-09-20T09:30:27.646Z,-20408.81
2022-09-20T09:33:17.502Z,-20419.03
2022-09-20T09:35:53.014Z,-20439.88
2022-09-20T09:38:24.086Z,-20493.13
2022-09-20T09:40:54.446Z,-20517.72
2022-09-20T09:43:27.169Z,-20534.56
2022-09-20T09:45:55.506Z,-20534.13
2022-09-20T09:48:27.458Z,-20515.44
2022-09-20T09:51:12.404Z,-20502.06
2022-09-20T09:53:40.730Z,-20491.44
2022-09-20T09:56:33.849Z,-20475.19
2022-09-20T09:59:33.210Z,-20465.91
2022-09-20T10:02:12.972Z,-20440.63
2022-09-20T10:04:49.126Z,-20430.59
2022-09-20T10:07:23.451Z,-20409.44
2022-09-20T10:10:04.557Z,-20399.06
2022-09-20T10:12:47.312Z,-20405.47
2022-09-20T10:15:26.808Z,-20401.22
2022-09-20T10:18:10.061Z,-20410.19
2022-09-20T10:20:53.095Z,-20451.00
2022-09-20T10:24:02.059Z,-20466.81
2022-09-20T10:26:51.932Z,-20460.72
2022-09-20T10:29:30.409Z,-20485.34
2022-09-20T10:32:13.418Z,-20506.31
2022-09-20T10:34:59.850Z,-20528.50
2022-09-20T10:37:40.888Z,-20554.59
2022-09-20T10:40:22.572Z,-20500.25
2022-09-20T10:43:17.908Z,-20499.50
2022-09-20T10:48:49.634Z,-20445.81
2022-09-20T10:51:25.794Z,-20432.72
2022-09-20T10:54:06.952Z,-20423.44
2022-09-20T10:56:37.782Z,-20416.91
2022-09-20T10:59:28.406Z,-20416.28
2022-09-20T11:02:13.993Z,-20408.06
2022-09-20T11:05:06.449Z,-20398.63
2022-09-20T11:07:46.804Z,-20393.72
2022-09-20T11:10:20.169Z,-20380.78
2022-09-20T11:12:52.717Z,-20371.19
2022-09-20T11:15:25.377Z,-20375.13
2022-09-20T11:18:02.615Z,-20373.31
2022-09-20T11:20:36.866Z,-20372.41
2022-09-20T11:23:11.589Z,-20377.44
2022-09-20T11:25:45.701Z,-20390.06
2022-09-20T11:28:20.370Z,-20388.09
2022-09-20T11:31:00.178Z,-20393.13
2022-09-20T11:33:31.605Z,-20390.69
2022-09-20T11:36:04.787Z,-20390.06
2022-09-20T11:38:38.866Z,-20376.97
2022-09-20T11:41:12.770Z,-20370.56
2022-09-20T11:43:42.711Z,-20375.13
2022-09-20T11:46:14.872Z,-20394.03
2022-09-20T11:48:46.907Z,-20412.31
2022-09-20T11:51:33.883Z,-20436.69
2022-09-20T11:54:22.841Z,-20459.19
2022-09-20T11:56:52.065Z,-20485.50
2022-09-20T11:59:30.261Z,-20514.53
2022-09-20T12:02:01.605Z,-20512.41
2022-09-20T12:04:33.895Z,-20536.53
2022-09-20T12:07:09.708Z,-20555.22
2022-09-20T12:09:43.304Z,-20583.41
2022-09-20T12:12:26.430Z,-20621.44
2022-09-20T12:14:56.162Z,-20622.19
2022-09-20T12:18:04.353Z,-20635.19
2022-09-20T12:21:16.291Z,-20594.03
2022-09-20T12:23:47.945Z,-20550.06
2022-09-20T12:26:37.878Z,-20523.66
2022-09-20T12:29:53.299Z,-20486.25
2022-09-20T12:32:47.103Z,-20488.09
2022-09-20T12:35:57.210Z,-20485.81
2022-09-20T12:38:49.706Z,-20468.94
2022-09-20T12:41:27.957Z,-20462.41
2022-09-20T12:44:03.322Z,-20460.56
2022-09-20T12:46:37.882Z,-20452.66
2022-09-20T12:49:55.448Z,-20450.06
2022-09-20T12:53:00.553Z,-20448.84
2022-09-20T12:55:43.658Z,-20451.28
2022-09-20T12:58:26.734Z,-20454.03
2022-09-20T13:01:29.084Z,-20450.84
2022-09-20T13:04:36.202Z,-20453.13
2022-09-20T13:07:38.788Z,-20457.38
2022-09-20T13:10:21.799Z,-20468.47
2022-09-20T13:12:54.447Z,-20476.09
2022-09-20T13:15:23.527Z,-20481.09
2022-09-20T13:17:54.401Z,-20478.38
2022-09-20T13:20:25.894Z,-20461.94
2022-09-20T13:23:00.068Z,-20474.41
2022-09-20T13:25:28.474Z,-20481.72
2022-09-20T13:28:06.664Z,-20456.16
2022-09-20T13:30:35.229Z,-20462.84
2022-09-20T13:33:23.477Z,-20454.63
2022-09-20T13:35:54.362Z,-20447.66
2022-09-20T13:38:27.144Z,-20443.38
2022-09-20T13:41:04.395Z,-20433.94
2022-09-20T13:43:33.913Z,-20448.69
2022-09-20T13:46:09.253Z,-20444.00
2022-09-20T13:48:37.154Z,-20428.91
2022-09-20T13:51:05.472Z,-20433.78
2022-09-20T13:53:42.872Z,-20430.91
2022-09-20T13:56:15.371Z,-20432.72
2022-09-20T13:58:43.174Z,-20443.38
2022-09-20T14:01:24.353Z,-20447.19
2022-09-20T14:03:52.109Z,-20445.06
2022-09-20T14:06:28.152Z,-20437.44
2022-09-20T14:09:00.438Z,-20438.66
2022-09-20T14:11:31.345Z,-20431.22
2022-09-20T14:14:01.609Z,-20438.50
2022-09-20T14:16:32.542Z,-20441.88
2022-09-20T14:19:01.211Z,-20444.16
2022-09-20T14:21:32.289Z,-20442.00
2022-09-20T14:24:06.234Z,-20432.13
2022-09-20T14:26:36.425Z,-20442.47
2022-09-20T14:29:31.481Z,-20430.13
2022-09-20T14:32:02.326Z,-20446.13
2022-09-20T14:34:29.930Z,-20460.72
2022-09-20T14:37:06.974Z,-20470.75
2022-09-20T14:39:46.407Z,-20465.59
2022-09-20T14:42:20.928Z,-20465.28
2022-09-20T14:44:52.186Z,-20472.59
2022-09-20T14:47:28.301Z,-20475.78
2022-09-20T14:49:56.883Z,-20474.41
2022-09-20T14:52:38.167Z,-20467.13
2022-09-20T14:55:21.289Z,-20467.56
2022-09-20T14:57:49.356Z,-20460.41
2022-09-20T15:00:20.587Z,-20452.81
2022-09-20T15:02:48.532Z,-20446.41
2022-09-20T15:05:23.793Z,-20450.53
2022-09-20T15:07:51.545Z,-20453.41
2022-09-20T15:10:21.215Z,-20452.19
2022-09-20T15:12:49.665Z,-20471.69
2022-09-20T15:15:19.246Z,-20486.88
2022-09-20T15:17:48.553Z,-20479.44
2022-09-20T15:20:23.729Z,-20472.88
2022-09-20T15:22:51.935Z,-20488.41
2022-09-20T15:25:22.164Z,-20492.19
2022-09-20T15:27:50.998Z,-20494.03
2022-09-20T15:30:20.917Z,-20483.22
2022-09-20T15:32:48.805Z,-20484.44
2022-09-20T15:35:16.440Z,-20480.34
2022-09-20T15:37:45.981Z,-20476.69
2022-09-20T15:40:13.647Z,-20468.94
2022-09-20T15:42:43.236Z,-20473.03
2022-09-20T15:45:12.575Z,-20474.56
2022-09-20T15:47:40.928Z,-20463.16
2022-09-20T15:50:10.670Z,-20458.59
2022-09-20T15:52:41.479Z,-20456.00
2022-09-20T15:55:10.876Z,-20442.16
2022-09-20T15:57:38.607Z,-20447.19
2022-09-20T16:00:09.494Z,-20435.91
2022-09-20T16:02:37.414Z,-20443.53
2022-09-20T16:05:05.946Z,-20439.13
2022-09-20T16:07:33.466Z,-20437.44
2022-09-20T16:10:01.047Z,-20435.63
2022-09-20T16:12:28.635Z,-20435.16
2022-09-20T16:14:56.203Z,-20436.06
2022-09-20T16:17:45.192Z,-20435.31
2022-09-20T16:20:11.840Z,-20430.59
2022-09-20T16:22:39.433Z,-20435.16
2022-09-20T16:25:08.829Z,-20428.31
2022-09-20T16:27:36.442Z,-20430.59
2022-09-20T16:30:04.541Z,-20431.97
2022-09-20T16:32:34.125Z,-20426.94
2022-09-20T16:35:07.223Z,-20427.84
2022-09-20T16:37:36.739Z,-20421.31
2022-09-20T16:40:05.134Z,-20413.38
2022-09-20T16:42:33.334Z,-20412.16
2022-09-20T16:45:00.860Z,-20418.41
2022-09-20T16:47:29.582Z,-20414.59
2022-09-20T16:49:58.459Z,-20407.31
2022-09-20T16:52:26.460Z,-20410.34
2022-09-20T16:54:54.019Z,-20411.09
2022-09-20T16:57:22.285Z,-20405.00
2022-09-20T16:59:51.789Z,-20406.38
2022-09-20T17:02:19.370Z,-20404.41
2022-09-20T17:04:47.154Z,-20404.72
2022-09-20T17:07:16.079Z,-20405.94
2022-09-20T17:09:43.781Z,-20400.75
2022-09-20T17:12:11.374Z,-20400.75
2022-09-20T17:14:39.139Z,-20398.31
2022-09-20T17:17:06.891Z,-20396.16
2022-09-20T17:19:34.844Z,-20390.06
2022-09-20T17:22:02.378Z,-20384.91
2022-09-20T17:24:31.281Z,-20384.28
2022-09-20T17:26:58.982Z,-20381.84
2022-09-20T17:29:27.558Z,-20381.25
2022-09-20T17:31:59.534Z,-20377.59
2022-09-20T17:34:29.409Z,-20374.53
2022-09-20T17:36:57.325Z,-20372.69
2022-09-20T17:39:25.081Z,-20371.94
2022-09-20T17:41:54.020Z,-20372.69
2022-09-20T17:44:22.733Z,-20372.09
2022-09-20T17:46:53.755Z,-20369.19
2022-09-20T17:49:23.162Z,-20365.38
2022-09-20T17:51:53.253Z,-20355.31
2022-09-20T17:54:22.223Z,-20353.47
2022-09-20T17:56:51.553Z,-20355.00
2022-09-20T17:59:21.488Z,-20352.56
2022-09-20T18:01:51.164Z,-20344.94
2022-09-20T18:04:20.738Z,-20345.41
2022-09-20T18:06:50.133Z,-20348.00
2022-09-20T18:09:20.294Z,-20344.47
2022-09-20T18:11:50.093Z,-20340.97
2022-09-20T18:14:21.323Z,-20340.69
2022-09-20T18:16:49.001Z,-20338.53
2022-09-20T18:19:16.873Z,-20344.34
2022-09-20T18:21:45.104Z,-20341.59
2022-09-20T18:24:13.149Z,-20338.84
2022-09-20T18:26:41.182Z,-20334.13
2022-09-20T18:29:11.830Z,-20327.56
2022-09-20T18:31:45.223Z,-20322.81
2022-09-20T18:34:15.327Z,-20318.69
2022-09-20T18:36:43.198Z,-20319.31
2022-09-20T18:39:11.385Z,-20320.22
2022-09-20T18:41:39.955Z,-20317.47
2022-09-20T18:44:08.638Z,-20316.09
2022-09-20T18:46:38.754Z,-20315.03
2022-09-20T18:49:09.355Z,-20320.38
2022-09-20T18:51:40.145Z,-20321.44
2022-09-20T18:54:10.206Z,-20320.81
2022-09-20T18:56:39.310Z,-20331.53
2022-09-20T18:59:09.194Z,-20330.75
2022-09-20T19:02:13.601Z,-20323.88
2022-09-20T19:04:57.751Z,-20326.31
2022-09-20T19:07:36.142Z,-20325.72
2022-09-20T19:10:12.974Z,-20324.66
2022-09-20T19:12:48.216Z,-20317.78
2022-09-20T19:15:52.091Z,-20310.44
2022-09-20T19:18:31.837Z,-20305.09
2022-09-20T19:21:10.054Z,-20303.72
2022-09-20T19:23:46.086Z,-20301.91
2022-09-20T19:26:21.361Z,-20299.91
2022-09-20T19:28:49.786Z,-20296.41
2022-09-20T19:31:23.199Z,-20297.63
2022-09-20T19:33:54.037Z,-20298.22
2022-09-20T19:36:23.927Z,-20294.88
2022-09-20T19:39:02.173Z,-20295.16
2022-09-20T19:41:45.086Z,-20295.16
2022-09-20T19:44:25.318Z,-20294.56
2022-09-20T19:47:07.722Z,-20289.81
2022-09-20T19:49:46.804Z,-20286.63
2022-09-20T19:52:16.355Z,-20286.47
2022-09-20T19:54:46.930Z,-20284.78
2022-09-20T19:57:20.119Z,-20285.72
2022-09-20T19:59:49.074Z,-20282.94
2022-09-20T20:02:17.086Z,-20281.72
2022-09-20T20:04:45.334Z,-20280.66
2022-09-20T20:07:27.902Z,-20280.81
2022-09-20T20:10:04.095Z,-20279.88
2022-09-20T20:12:36.794Z,-20280.50
2022-09-20T20:15:15.722Z,-20278.66
2022-09-20T20:17:51.134Z,-20275.91
2022-09-20T20:20:30.318Z,-20272.72
2022-09-20T20:23:23.321Z,-20271.78
2022-09-20T20:25:59.915Z,-20267.34
2022-09-20T20:28:27.763Z,-20265.84
2022-09-20T20:30:59.690Z,-20264.91
2022-09-20T20:33:27.542Z,-20262.16
2022-09-20T20:35:56.534Z,-20261.84
2022-09-20T20:38:26.560Z,-20260.94
2022-09-20T20:41:04.505Z,-20257.44
2022-09-20T20:43:32.638Z,-20254.22
2022-09-20T20:46:00.755Z,-20253.91
2022-09-20T20:48:28.477Z,-20252.06
2022-09-20T20:51:03.415Z,-20249.63
2022-09-20T20:53:33.847Z,-20247.34
2022-09-20T20:56:07.250Z,-20244.13
2022-09-20T20:58:36.290Z,-20244.44
2022-09-20T21:01:12.687Z,-20244.72
2022-09-20T21:03:41.251Z,-20243.06
2022-09-20T21:06:10.083Z,-20241.38
2022-09-20T21:08:45.780Z,-20240.28
2022-09-20T21:11:18.013Z,-20238.47
2022-09-20T21:13:48.259Z,-20236.00
2022-09-20T21:16:17.028Z,-20235.56
2022-09-20T21:18:46.433Z,-20233.25
2022-09-20T21:21:17.546Z,-20231.56
2022-09-20T21:23:48.726Z,-20227.75
2022-09-20T21:26:16.866Z,-20226.69
2022-09-20T21:28:46.209Z,-20224.22
2022-09-20T21:31:14.185Z,-20223.63
2022-09-20T21:33:43.467Z,-20224.22
2022-09-20T21:36:13.178Z,-20219.63
2022-09-20T21:38:41.591Z,-20219.34
2022-09-20T21:41:12.634Z,-20219.19
2022-09-20T21:43:42.528Z,-20215.34
2022-09-20T21:46:13.934Z,-20213.53
2022-09-20T21:48:42.041Z,-20212.28
2022-09-20T21:51:11.490Z,-20210.91
2022-09-20T21:53:40.041Z,-20209.69
2022-09-20T21:56:10.505Z,-20207.25
2022-09-20T21:58:39.886Z,-20205.88
2022-09-20T22:01:09.911Z,-20204.78
2022-09-20T22:03:39.138Z,-20203.88
2022-09-20T22:06:09.586Z,-20203.88
2022-09-20T22:08:38.115Z,-20206.00
2022-09-20T22:11:06.022Z,-20206.16
2022-09-20T22:13:35.195Z,-20204.50
2022-09-20T22:16:08.027Z,-20201.72
2022-09-20T22:18:37.285Z,-20200.66
2022-09-20T22:21:07.306Z,-20201.44
2022-09-20T22:23:35.496Z,-20199.91
2022-09-20T22:26:04.676Z,-20199.13
2022-09-20T22:28:32.330Z,-20198.22
2022-09-20T22:31:12.736Z,-20197.28
2022-09-20T22:33:43.378Z,-20197.59
2022-09-20T22:36:13.881Z,-20198.81
2022-09-20T22:38:41.708Z,-20194.53
2022-09-20T22:41:09.446Z,-20192.09
2022-09-20T22:43:37.354Z,-20193.91
2022-09-20T22:46:06.816Z,-20196.22
2022-09-20T22:48:36.680Z,-20193.00
2022-09-20T22:51:07.004Z,-20196.06
2022-09-20T22:53:35.031Z,-20191.78
2022-09-20T22:56:04.222Z,-20190.41
2022-09-20T22:58:32.703Z,-20190.72
2022-09-20T23:01:05.521Z,-20193.31
2022-09-20T23:03:33.253Z,-20195.91
2022-09-20T23:06:02.987Z,-20192.84
2022-09-20T23:08:32.314Z,-20191.78
2022-09-20T23:11:03.474Z,-20193.63
2022-09-20T23:13:31.290Z,-20194.22
2022-09-20T23:15:58.826Z,-20189.03
2022-09-20T23:18:26.799Z,-20184.13
2022-09-20T23:21:02.753Z,-20184.28
2022-09-20T23:23:31.004Z,-20185.66
2022-09-20T23:26:07.356Z,-20182.28
2022-09-20T23:28:35.550Z,-20183.06
2022-09-20T23:31:04.936Z,-20181.06
2022-09-20T23:33:32.690Z,-20179.69
2022-09-20T23:36:02.950Z,-20177.53
2022-09-20T23:38:30.484Z,-20178.91
2022-09-20T23:41:03.319Z,-20175.53
2022-09-20T23:43:30.906Z,-20175.38
2022-09-20T23:45:58.659Z,-20177.06
2022-09-20T23:48:26.982Z,-20175.69
2022-09-20T23:50:54.925Z,-20175.22
2022-09-20T23:53:24.191Z,-20174.63
2022-09-20T23:55:51.861Z,-20175.69
2022-09-20T23:58:19.449Z,-20175.69
